sensor_id;sensor_type;location;lat;lon;timestamp;P1;durP1;ratioP1;P2;durP2;ratioP2
12768;SDS011;6448;48.916;8.990;2022-11-15T00:01:18;1.70;;;1.60;;
12768;SDS011;6448;48.916;8.990;2022-11-15T00:02:38;1.80;;;1.60;;
12768;SDS011;6448;48.916;8.990;2022-11-15T00:03:58;1.60;;;1.50;;
12768;SDS011;6448;48.916;8.990;2022-11-15T00:05:18;1.70;;;1.60;;
12768;SDS011;6448;48.916;8.990;2022-11-15T00:06:39;1.70;;;1.60;;
12768;SDS011;6448;48.916;8.990;2022-11-15T00:07:59;1.95;;;1.85;;
12768;SDS011;6448;48.916;8.990;2022-11-15T00:09:19;1.90;;;1.80;;
12768;SDS011;6448;48.916;8.990;2022-11-15T00:10:39;1.80;;;1.70;;
12768;SDS011;6448;48.916;8.990;2022-11-15T00:11:59;2.03;;;1.73;;
12768;SDS011;6448;48.916;8.990;2022-11-15T00:13:19;1.87;;;1.70;;
12768;SDS011;6448;48.916;8.990;2022-11-15T00:14:39;1.80;;;1.70;;
12768;SDS011;6448;48.916;8.990;2022-11-15T00:16:00;2.00;;;1.80;;
12768;SDS011;6448;48.916;8.990;2022-11-15T00:17:19;1.90;;;1.75;;
12768;SDS011;6448;48.916;8.990;2022-11-15T00:18:40;1.70;;;1.60;;
12768;SDS011;6448;48.916;8.990;2022-11-15T00:20:00;2.15;;;1.75;;
12768;SDS011;6448;48.916;8.990;2022-11-15T00:21:21;1.65;;;1.52;;
12768;SDS011;6448;48.916;8.990;2022-11-15T00:22:42;1.80;;;1.70;;
12768;SDS011;6448;48.916;8.990;2022-11-15T00:24:02;1.98;;;1.80;;
12768;SDS011;6448;48.916;8.990;2022-11-15T00:25:22;1.85;;;1.75;;
12768;SDS011;6448;48.916;8.990;2022-11-15T00:26:42;2.10;;;1.80;;
12768;SDS011;6448;48.916;8.990;2022-11-15T00:28:02;1.83;;;1.73;;
12768;SDS011;6448;48.916;8.990;2022-11-15T00:29:23;1.80;;;1.70;;
12768;SDS011;6448;48.916;8.990;2022-11-15T00:30:43;1.60;;;1.50;;
12768;SDS011;6448;48.916;8.990;2022-11-15T00:32:03;1.80;;;1.70;;
12768;SDS011;6448;48.916;8.990;2022-11-15T00:33:23;1.92;;;1.73;;
12768;SDS011;6448;48.916;8.990;2022-11-15T00:34:42;1.70;;;1.60;;
12768;SDS011;6448;48.916;8.990;2022-11-15T00:36:04;1.75;;;1.65;;
12768;SDS011;6448;48.916;8.990;2022-11-15T00:37:26;1.90;;;1.67;;
12768;SDS011;6448;48.916;8.990;2022-11-15T00:38:47;1.70;;;1.60;;
12768;SDS011;6448;48.916;8.990;2022-11-15T00:40:08;1.73;;;1.58;;
12768;SDS011;6448;48.916;8.990;2022-11-15T00:41:31;1.70;;;1.60;;
12768;SDS011;6448;48.916;8.990;2022-11-15T00:42:52;1.75;;;1.65;;
12768;SDS011;6448;48.916;8.990;2022-11-15T00:44:11;1.70;;;1.60;;
12768;SDS011;6448;48.916;8.990;2022-11-15T00:45:32;1.58;;;1.48;;
12768;SDS011;6448;48.916;8.990;2022-11-15T00:46:52;1.70;;;1.60;;
12768;SDS011;6448;48.916;8.990;2022-11-15T00:48:12;1.60;;;1.50;;
12768;SDS011;6448;48.916;8.990;2022-11-15T00:49:32;1.80;;;1.70;;
12768;SDS011;6448;48.916;8.990;2022-11-15T00:50:52;1.60;;;1.50;;
12768;SDS011;6448;48.916;8.990;2022-11-15T00:52:12;1.60;;;1.50;;
12768;SDS011;6448;48.916;8.990;2022-11-15T00:53:33;1.75;;;1.50;;
12768;SDS011;6448;48.916;8.990;2022-11-15T00:54:54;1.58;;;1.48;;
12768;SDS011;6448;48.916;8.990;2022-11-15T00:56:14;1.70;;;1.60;;
12768;SDS011;6448;48.916;8.990;2022-11-15T00:57:35;1.90;;;1.70;;
12768;SDS011;6448;48.916;8.990;2022-11-15T00:58:54;1.63;;;1.52;;
12768;SDS011;6448;48.916;8.990;2022-11-15T01:00:15;1.63;;;1.53;;
12768;SDS011;6448;48.916;8.990;2022-11-15T01:01:34;1.70;;;1.45;;
12768;SDS011;6448;48.916;8.990;2022-11-15T01:02:55;1.50;;;1.40;;
12768;SDS011;6448;48.916;8.990;2022-11-15T01:04:14;1.70;;;1.60;;
12768;SDS011;6448;48.916;8.990;2022-11-15T01:05:36;1.60;;;1.50;;
12768;SDS011;6448;48.916;8.990;2022-11-15T01:06:57;1.50;;;1.40;;
12768;SDS011;6448;48.916;8.990;2022-11-15T01:08:16;1.70;;;1.60;;
12768;SDS011;6448;48.916;8.990;2022-11-15T01:09:37;1.80;;;1.50;;
12768;SDS011;6448;48.916;8.990;2022-11-15T01:11:01;1.60;;;1.50;;
12768;SDS011;6448;48.916;8.990;2022-11-15T01:12:21;1.60;;;1.50;;
12768;SDS011;6448;48.916;8.990;2022-11-15T01:13:42;1.70;;;1.60;;
12768;SDS011;6448;48.916;8.990;2022-11-15T01:15:02;1.98;;;1.60;;
12768;SDS011;6448;48.916;8.990;2022-11-15T01:16:23;1.60;;;1.50;;
12768;SDS011;6448;48.916;8.990;2022-11-15T01:17:43;1.70;;;1.60;;
12768;SDS011;6448;48.916;8.990;2022-11-15T01:19:03;1.80;;;1.70;;
12768;SDS011;6448;48.916;8.990;2022-11-15T01:20:23;1.70;;;1.60;;
12768;SDS011;6448;48.916;8.990;2022-11-15T01:21:43;1.90;;;1.80;;
12768;SDS011;6448;48.916;8.990;2022-11-15T01:23:03;1.88;;;1.73;;
12768;SDS011;6448;48.916;8.990;2022-11-15T01:24:23;2.00;;;1.75;;
12768;SDS011;6448;48.916;8.990;2022-11-15T01:25:43;1.88;;;1.77;;
12768;SDS011;6448;48.916;8.990;2022-11-15T01:27:04;2.00;;;1.90;;
12768;SDS011;6448;48.916;8.990;2022-11-15T01:28:25;1.70;;;1.60;;
12768;SDS011;6448;48.916;8.990;2022-11-15T01:29:49;1.85;;;1.70;;
12768;SDS011;6448;48.916;8.990;2022-11-15T01:31:11;1.70;;;1.60;;
12768;SDS011;6448;48.916;8.990;2022-11-15T01:32:35;1.73;;;1.63;;
12768;SDS011;6448;48.916;8.990;2022-11-15T01:33:55;1.52;;;1.42;;
12768;SDS011;6448;48.916;8.990;2022-11-15T01:35:15;2.08;;;1.60;;
12768;SDS011;6448;48.916;8.990;2022-11-15T01:36:35;1.73;;;1.63;;
12768;SDS011;6448;48.916;8.990;2022-11-15T01:37:56;1.92;;;1.83;;
12768;SDS011;6448;48.916;8.990;2022-11-15T01:39:16;2.15;;;1.95;;
12768;SDS011;6448;48.916;8.990;2022-11-15T01:40:36;2.10;;;1.90;;
12768;SDS011;6448;48.916;8.990;2022-11-15T01:41:56;1.95;;;1.85;;
12768;SDS011;6448;48.916;8.990;2022-11-15T01:43:21;1.85;;;1.75;;
12768;SDS011;6448;48.916;8.990;2022-11-15T01:44:43;2.00;;;1.80;;
12768;SDS011;6448;48.916;8.990;2022-11-15T01:46:11;2.17;;;1.90;;
12768;SDS011;6448;48.916;8.990;2022-11-15T01:47:43;1.95;;;1.85;;
12768;SDS011;6448;48.916;8.990;2022-11-15T01:49:10;1.88;;;1.77;;
12768;SDS011;6448;48.916;8.990;2022-11-15T01:50:31;1.90;;;1.80;;
12768;SDS011;6448;48.916;8.990;2022-11-15T01:51:52;2.20;;;2.00;;
12768;SDS011;6448;48.916;8.990;2022-11-15T01:53:13;1.90;;;1.80;;
12768;SDS011;6448;48.916;8.990;2022-11-15T01:54:34;1.80;;;1.70;;
12768;SDS011;6448;48.916;8.990;2022-11-15T01:55:54;1.70;;;1.60;;
12768;SDS011;6448;48.916;8.990;2022-11-15T01:57:15;1.98;;;1.77;;
12768;SDS011;6448;48.916;8.990;2022-11-15T01:58:36;1.77;;;1.67;;
12768;SDS011;6448;48.916;8.990;2022-11-15T01:59:57;1.60;;;1.50;;
12768;SDS011;6448;48.916;8.990;2022-11-15T02:01:20;1.80;;;1.70;;
12768;SDS011;6448;48.916;8.990;2022-11-15T02:02:41;1.70;;;1.60;;
12768;SDS011;6448;48.916;8.990;2022-11-15T02:04:02;1.63;;;1.52;;
12768;SDS011;6448;48.916;8.990;2022-11-15T02:05:26;1.60;;;1.50;;
12768;SDS011;6448;48.916;8.990;2022-11-15T02:06:47;1.55;;;1.45;;
12768;SDS011;6448;48.916;8.990;2022-11-15T02:08:08;1.60;;;1.50;;
12768;SDS011;6448;48.916;8.990;2022-11-15T02:09:38;1.90;;;1.50;;
12768;SDS011;6448;48.916;8.990;2022-11-15T02:10:59;1.50;;;1.40;;
12768;SDS011;6448;48.916;8.990;2022-11-15T02:12:20;1.67;;;1.58;;
12768;SDS011;6448;48.916;8.990;2022-11-15T02:13:42;1.60;;;1.50;;
12768;SDS011;6448;48.916;8.990;2022-11-15T02:15:03;1.60;;;1.50;;
12768;SDS011;6448;48.916;8.990;2022-11-15T02:16:27;1.60;;;1.50;;
12768;SDS011;6448;48.916;8.990;2022-11-15T02:17:57;1.60;;;1.50;;
12768;SDS011;6448;48.916;8.990;2022-11-15T02:19:36;1.50;;;1.40;;
12768;SDS011;6448;48.916;8.990;2022-11-15T02:21:11;1.80;;;1.70;;
12768;SDS011;6448;48.916;8.990;2022-11-15T02:22:43;2.10;;;1.90;;
12768;SDS011;6448;48.916;8.990;2022-11-15T02:24:16;1.90;;;1.70;;
12768;SDS011;6448;48.916;8.990;2022-11-15T02:26:09;1.80;;;1.70;;
12768;SDS011;6448;48.916;8.990;2022-11-15T02:27:49;2.00;;;1.90;;
12768;SDS011;6448;48.916;8.990;2022-11-15T02:29:26;2.10;;;1.90;;
12768;SDS011;6448;48.916;8.990;2022-11-15T02:31:04;2.10;;;2.00;;
12768;SDS011;6448;48.916;8.990;2022-11-15T02:32:32;1.95;;;1.75;;
12768;SDS011;6448;48.916;8.990;2022-11-15T02:34:03;1.80;;;1.70;;
12768;SDS011;6448;48.916;8.990;2022-11-15T02:35:29;2.03;;;1.88;;
12768;SDS011;6448;48.916;8.990;2022-11-15T02:36:59;2.80;;;2.00;;
12768;SDS011;6448;48.916;8.990;2022-11-15T02:38:25;1.80;;;1.70;;
12768;SDS011;6448;48.916;8.990;2022-11-15T02:39:50;1.92;;;1.77;;
12768;SDS011;6448;48.916;8.990;2022-11-15T02:41:19;2.17;;;1.98;;
12768;SDS011;6448;48.916;8.990;2022-11-15T02:42:45;1.70;;;1.60;;
12768;SDS011;6448;48.916;8.990;2022-11-15T02:44:30;1.88;;;1.77;;
12768;SDS011;6448;48.916;8.990;2022-11-15T02:45:55;1.90;;;1.80;;
12768;SDS011;6448;48.916;8.990;2022-11-15T02:47:22;1.70;;;1.60;;
12768;SDS011;6448;48.916;8.990;2022-11-15T02:48:46;1.95;;;1.70;;
12768;SDS011;6448;48.916;8.990;2022-11-15T02:50:08;1.80;;;1.70;;
12768;SDS011;6448;48.916;8.990;2022-11-15T02:51:29;1.80;;;1.70;;
12768;SDS011;6448;48.916;8.990;2022-11-15T02:52:50;1.70;;;1.60;;
12768;SDS011;6448;48.916;8.990;2022-11-15T02:54:11;1.65;;;1.55;;
12768;SDS011;6448;48.916;8.990;2022-11-15T02:55:34;1.90;;;1.70;;
12768;SDS011;6448;48.916;8.990;2022-11-15T02:56:58;2.03;;;1.80;;
12768;SDS011;6448;48.916;8.990;2022-11-15T02:58:26;1.85;;;1.60;;
12768;SDS011;6448;48.916;8.990;2022-11-15T03:00:18;1.98;;;1.88;;
12768;SDS011;6448;48.916;8.990;2022-11-15T03:01:43;1.70;;;1.60;;
12768;SDS011;6448;48.916;8.990;2022-11-15T03:03:22;1.92;;;1.73;;
12768;SDS011;6448;48.916;8.990;2022-11-15T03:05:03;1.75;;;1.65;;
12768;SDS011;6448;48.916;8.990;2022-11-15T03:06:28;2.10;;;1.73;;
12768;SDS011;6448;48.916;8.990;2022-11-15T03:07:56;2.10;;;1.70;;
12768;SDS011;6448;48.916;8.990;2022-11-15T03:09:23;1.90;;;1.70;;
12768;SDS011;6448;48.916;8.990;2022-11-15T03:10:52;2.17;;;1.98;;
12768;SDS011;6448;48.916;8.990;2022-11-15T03:12:23;1.90;;;1.73;;
12768;SDS011;6448;48.916;8.990;2022-11-15T03:13:46;2.10;;;1.90;;
12768;SDS011;6448;48.916;8.990;2022-11-15T03:15:15;2.20;;;1.70;;
12768;SDS011;6448;48.916;8.990;2022-11-15T03:16:41;1.90;;;1.73;;
12768;SDS011;6448;48.916;8.990;2022-11-15T03:18:07;1.85;;;1.60;;
12768;SDS011;6448;48.916;8.990;2022-11-15T03:19:34;1.70;;;1.60;;
12768;SDS011;6448;48.916;8.990;2022-11-15T03:21:00;1.90;;;1.80;;
12768;SDS011;6448;48.916;8.990;2022-11-15T03:22:24;1.65;;;1.55;;
12768;SDS011;6448;48.916;8.990;2022-11-15T03:23:46;1.67;;;1.58;;
12768;SDS011;6448;48.916;8.990;2022-11-15T03:25:08;1.83;;;1.73;;
12768;SDS011;6448;48.916;8.990;2022-11-15T03:26:34;2.05;;;1.50;;
12768;SDS011;6448;48.916;8.990;2022-11-15T03:27:57;1.60;;;1.50;;
12768;SDS011;6448;48.916;8.990;2022-11-15T03:29:22;1.70;;;1.60;;
12768;SDS011;6448;48.916;8.990;2022-11-15T03:30:47;1.70;;;1.50;;
12768;SDS011;6448;48.916;8.990;2022-11-15T03:32:11;1.70;;;1.60;;
12768;SDS011;6448;48.916;8.990;2022-11-15T03:33:34;1.52;;;1.42;;
12768;SDS011;6448;48.916;8.990;2022-11-15T03:34:57;1.60;;;1.50;;
12768;SDS011;6448;48.916;8.990;2022-11-15T03:36:19;1.90;;;1.67;;
12768;SDS011;6448;48.916;8.990;2022-11-15T03:37:44;1.70;;;1.60;;
12768;SDS011;6448;48.916;8.990;2022-11-15T03:39:08;1.88;;;1.70;;
12768;SDS011;6448;48.916;8.990;2022-11-15T03:40:30;1.98;;;1.80;;
12768;SDS011;6448;48.916;8.990;2022-11-15T03:41:57;1.77;;;1.67;;
12768;SDS011;6448;48.916;8.990;2022-11-15T03:43:28;1.83;;;1.65;;
12768;SDS011;6448;48.916;8.990;2022-11-15T03:44:55;2.10;;;1.88;;
12768;SDS011;6448;48.916;8.990;2022-11-15T03:46:19;2.28;;;1.70;;
12768;SDS011;6448;48.916;8.990;2022-11-15T03:47:45;1.90;;;1.80;;
12768;SDS011;6448;48.916;8.990;2022-11-15T03:49:09;1.92;;;1.80;;
12768;SDS011;6448;48.916;8.990;2022-11-15T03:50:33;1.98;;;1.88;;
12768;SDS011;6448;48.916;8.990;2022-11-15T03:51:56;2.17;;;1.92;;
12768;SDS011;6448;48.916;8.990;2022-11-15T03:53:16;2.10;;;1.90;;
12768;SDS011;6448;48.916;8.990;2022-11-15T03:54:36;2.63;;;2.03;;
12768;SDS011;6448;48.916;8.990;2022-11-15T03:56:06;2.00;;;1.90;;
12768;SDS011;6448;48.916;8.990;2022-11-15T03:57:26;2.10;;;1.90;;
12768;SDS011;6448;48.916;8.990;2022-11-15T03:58:46;1.80;;;1.70;;
12768;SDS011;6448;48.916;8.990;2022-11-15T04:00:07;1.92;;;1.77;;
12768;SDS011;6448;48.916;8.990;2022-11-15T04:01:29;2.10;;;1.70;;
12768;SDS011;6448;48.916;8.990;2022-11-15T04:02:49;1.60;;;1.50;;
12768;SDS011;6448;48.916;8.990;2022-11-15T04:04:10;1.70;;;1.60;;
12768;SDS011;6448;48.916;8.990;2022-11-15T04:05:30;1.70;;;1.60;;
12768;SDS011;6448;48.916;8.990;2022-11-15T04:06:52;2.00;;;1.70;;
12768;SDS011;6448;48.916;8.990;2022-11-15T04:08:13;1.90;;;1.80;;
12768;SDS011;6448;48.916;8.990;2022-11-15T04:09:32;1.70;;;1.60;;
12768;SDS011;6448;48.916;8.990;2022-11-15T04:11:12;1.83;;;1.70;;
12768;SDS011;6448;48.916;8.990;2022-11-15T04:12:33;1.75;;;1.65;;
12768;SDS011;6448;48.916;8.990;2022-11-15T04:13:54;1.73;;;1.58;;
12768;SDS011;6448;48.916;8.990;2022-11-15T04:15:15;1.60;;;1.50;;
12768;SDS011;6448;48.916;8.990;2022-11-15T04:16:37;1.50;;;1.40;;
12768;SDS011;6448;48.916;8.990;2022-11-15T04:17:57;1.85;;;1.60;;
12768;SDS011;6448;48.916;8.990;2022-11-15T04:19:17;1.65;;;1.55;;
12768;SDS011;6448;48.916;8.990;2022-11-15T04:20:55;1.67;;;1.58;;
12768;SDS011;6448;48.916;8.990;2022-11-15T04:22:35;1.80;;;1.70;;
12768;SDS011;6448;48.916;8.990;2022-11-15T04:24:13;1.70;;;1.60;;
12768;SDS011;6448;48.916;8.990;2022-11-15T04:25:33;1.80;;;1.70;;
12768;SDS011;6448;48.916;8.990;2022-11-15T04:26:52;1.70;;;1.60;;
12768;SDS011;6448;48.916;8.990;2022-11-15T04:28:13;1.75;;;1.65;;
12768;SDS011;6448;48.916;8.990;2022-11-15T04:29:33;1.80;;;1.70;;
12768;SDS011;6448;48.916;8.990;2022-11-15T04:30:53;2.20;;;2.00;;
12768;SDS011;6448;48.916;8.990;2022-11-15T04:32:13;2.00;;;1.80;;
12768;SDS011;6448;48.916;8.990;2022-11-15T04:33:33;2.25;;;2.05;;
12768;SDS011;6448;48.916;8.990;2022-11-15T04:34:54;2.20;;;2.00;;
12768;SDS011;6448;48.916;8.990;2022-11-15T04:36:13;2.70;;;2.00;;
12768;SDS011;6448;48.916;8.990;2022-11-15T04:37:53;2.50;;;2.30;;
12768;SDS011;6448;48.916;8.990;2022-11-15T04:39:13;2.30;;;2.10;;
12768;SDS011;6448;48.916;8.990;2022-11-15T04:40:33;2.22;;;2.03;;
12768;SDS011;6448;48.916;8.990;2022-11-15T04:41:54;2.17;;;2.00;;
12768;SDS011;6448;48.916;8.990;2022-11-15T04:43:13;2.10;;;2.00;;
12768;SDS011;6448;48.916;8.990;2022-11-15T04:44:34;2.30;;;2.10;;
12768;SDS011;6448;48.916;8.990;2022-11-15T04:45:54;2.08;;;1.80;;
12768;SDS011;6448;48.916;8.990;2022-11-15T04:47:14;2.30;;;2.10;;
12768;SDS011;6448;48.916;8.990;2022-11-15T04:48:34;2.30;;;2.10;;
12768;SDS011;6448;48.916;8.990;2022-11-15T04:49:54;2.20;;;2.00;;
12768;SDS011;6448;48.916;8.990;2022-11-15T04:51:14;2.13;;;1.92;;
12768;SDS011;6448;48.916;8.990;2022-11-15T04:52:34;2.20;;;2.00;;
12768;SDS011;6448;48.916;8.990;2022-11-15T04:53:56;1.90;;;1.80;;
12768;SDS011;6448;48.916;8.990;2022-11-15T04:55:16;1.95;;;1.80;;
12768;SDS011;6448;48.916;8.990;2022-11-15T04:56:36;2.15;;;1.80;;
12768;SDS011;6448;48.916;8.990;2022-11-15T04:57:59;2.05;;;1.85;;
12768;SDS011;6448;48.916;8.990;2022-11-15T04:59:20;2.10;;;1.90;;
12768;SDS011;6448;48.916;8.990;2022-11-15T05:00:40;1.80;;;1.70;;
12768;SDS011;6448;48.916;8.990;2022-11-15T05:02:00;2.15;;;1.95;;
12768;SDS011;6448;48.916;8.990;2022-11-15T05:03:21;2.20;;;2.00;;
12768;SDS011;6448;48.916;8.990;2022-11-15T05:04:58;1.85;;;1.70;;
12768;SDS011;6448;48.916;8.990;2022-11-15T05:06:18;1.92;;;1.77;;
12768;SDS011;6448;48.916;8.990;2022-11-15T05:07:38;2.20;;;2.00;;
12768;SDS011;6448;48.916;8.990;2022-11-15T05:08:59;2.17;;;1.98;;
12768;SDS011;6448;48.916;8.990;2022-11-15T05:10:20;2.40;;;2.20;;
12768;SDS011;6448;48.916;8.990;2022-11-15T05:11:40;2.20;;;2.00;;
12768;SDS011;6448;48.916;8.990;2022-11-15T05:13:00;2.20;;;2.00;;
12768;SDS011;6448;48.916;8.990;2022-11-15T05:14:21;2.10;;;1.90;;
12768;SDS011;6448;48.916;8.990;2022-11-15T05:15:40;2.05;;;1.95;;
12768;SDS011;6448;48.916;8.990;2022-11-15T05:17:01;2.20;;;1.90;;
12768;SDS011;6448;48.916;8.990;2022-11-15T05:18:20;2.17;;;1.98;;
12768;SDS011;6448;48.916;8.990;2022-11-15T05:19:41;2.50;;;1.88;;
12768;SDS011;6448;48.916;8.990;2022-11-15T05:21:02;1.90;;;1.80;;
12768;SDS011;6448;48.916;8.990;2022-11-15T05:22:23;1.90;;;1.80;;
12768;SDS011;6448;48.916;8.990;2022-11-15T05:23:42;2.10;;;1.90;;
12768;SDS011;6448;48.916;8.990;2022-11-15T05:25:04;1.70;;;1.60;;
12768;SDS011;6448;48.916;8.990;2022-11-15T05:26:24;1.70;;;1.60;;
12768;SDS011;6448;48.916;8.990;2022-11-15T05:27:45;1.80;;;1.70;;
12768;SDS011;6448;48.916;8.990;2022-11-15T05:29:05;1.75;;;1.65;;
12768;SDS011;6448;48.916;8.990;2022-11-15T05:30:25;1.88;;;1.77;;
12768;SDS011;6448;48.916;8.990;2022-11-15T05:31:45;2.20;;;2.00;;
12768;SDS011;6448;48.916;8.990;2022-11-15T05:33:05;2.00;;;1.80;;
12768;SDS011;6448;48.916;8.990;2022-11-15T05:34:25;2.28;;;2.08;;
12768;SDS011;6448;48.916;8.990;2022-11-15T05:35:46;2.10;;;2.00;;
12768;SDS011;6448;48.916;8.990;2022-11-15T05:37:13;2.15;;;1.98;;
12768;SDS011;6448;48.916;8.990;2022-11-15T05:38:33;2.35;;;2.15;;
12768;SDS011;6448;48.916;8.990;2022-11-15T05:39:53;2.10;;;2.00;;
12768;SDS011;6448;48.916;8.990;2022-11-15T05:41:15;2.10;;;1.90;;
12768;SDS011;6448;48.916;8.990;2022-11-15T05:42:35;2.40;;;2.10;;
12768;SDS011;6448;48.916;8.990;2022-11-15T05:43:56;2.20;;;1.92;;
12768;SDS011;6448;48.916;8.990;2022-11-15T05:45:19;2.40;;;2.20;;
12768;SDS011;6448;48.916;8.990;2022-11-15T05:46:39;2.42;;;2.22;;
12768;SDS011;6448;48.916;8.990;2022-11-15T05:48:03;2.92;;;2.13;;
12768;SDS011;6448;48.916;8.990;2022-11-15T05:49:26;2.15;;;2.00;;
12768;SDS011;6448;48.916;8.990;2022-11-15T05:50:51;2.30;;;2.10;;
12768;SDS011;6448;48.916;8.990;2022-11-15T05:52:12;2.25;;;2.03;;
12768;SDS011;6448;48.916;8.990;2022-11-15T05:53:36;2.30;;;2.10;;
12768;SDS011;6448;48.916;8.990;2022-11-15T05:54:57;2.72;;;2.50;;
12768;SDS011;6448;48.916;8.990;2022-11-15T05:56:19;2.92;;;2.47;;
12768;SDS011;6448;48.916;8.990;2022-11-15T05:57:40;2.75;;;2.47;;
12768;SDS011;6448;48.916;8.990;2022-11-15T05:59:01;2.60;;;2.20;;
12768;SDS011;6448;48.916;8.990;2022-11-15T06:00:22;2.50;;;2.30;;
12768;SDS011;6448;48.916;8.990;2022-11-15T06:01:42;2.43;;;2.23;;
12768;SDS011;6448;48.916;8.990;2022-11-15T06:03:02;2.50;;;2.30;;
12768;SDS011;6448;48.916;8.990;2022-11-15T06:04:21;2.65;;;2.20;;
12768;SDS011;6448;48.916;8.990;2022-11-15T06:05:42;2.58;;;2.10;;
12768;SDS011;6448;48.916;8.990;2022-11-15T06:07:02;2.22;;;2.03;;
12768;SDS011;6448;48.916;8.990;2022-11-15T06:08:23;2.42;;;2.22;;
12768;SDS011;6448;48.916;8.990;2022-11-15T06:09:43;2.40;;;2.20;;
12768;SDS011;6448;48.916;8.990;2022-11-15T06:11:04;3.13;;;2.53;;
12768;SDS011;6448;48.916;8.990;2022-11-15T06:12:26;3.05;;;2.85;;
12768;SDS011;6448;48.916;8.990;2022-11-15T06:13:46;2.72;;;2.53;;
12768;SDS011;6448;48.916;8.990;2022-11-15T06:15:07;3.10;;;2.90;;
12768;SDS011;6448;48.916;8.990;2022-11-15T06:16:27;3.00;;;2.80;;
12768;SDS011;6448;48.916;8.990;2022-11-15T06:17:47;3.00;;;2.80;;
12768;SDS011;6448;48.916;8.990;2022-11-15T06:19:07;2.90;;;2.70;;
12768;SDS011;6448;48.916;8.990;2022-11-15T06:20:28;3.50;;;3.20;;
12768;SDS011;6448;48.916;8.990;2022-11-15T06:21:48;4.00;;;3.70;;
12768;SDS011;6448;48.916;8.990;2022-11-15T06:23:08;4.40;;;4.00;;
12768;SDS011;6448;48.916;8.990;2022-11-15T06:24:28;3.63;;;3.33;;
12768;SDS011;6448;48.916;8.990;2022-11-15T06:25:48;3.00;;;2.80;;
12768;SDS011;6448;48.916;8.990;2022-11-15T06:27:08;2.72;;;2.53;;
12768;SDS011;6448;48.916;8.990;2022-11-15T06:28:30;2.70;;;2.50;;
12768;SDS011;6448;48.916;8.990;2022-11-15T06:29:51;2.63;;;2.42;;
12768;SDS011;6448;48.916;8.990;2022-11-15T06:31:11;2.40;;;2.20;;
12768;SDS011;6448;48.916;8.990;2022-11-15T06:32:31;2.40;;;2.20;;
12768;SDS011;6448;48.916;8.990;2022-11-15T06:33:51;2.40;;;2.20;;
12768;SDS011;6448;48.916;8.990;2022-11-15T06:35:12;2.50;;;2.30;;
12768;SDS011;6448;48.916;8.990;2022-11-15T06:36:33;2.60;;;2.40;;
12768;SDS011;6448;48.916;8.990;2022-11-15T06:37:54;3.10;;;2.20;;
12768;SDS011;6448;48.916;8.990;2022-11-15T06:39:13;3.13;;;2.65;;
12768;SDS011;6448;48.916;8.990;2022-11-15T06:40:34;2.80;;;2.60;;
12768;SDS011;6448;48.916;8.990;2022-11-15T06:41:54;2.67;;;2.47;;
12768;SDS011;6448;48.916;8.990;2022-11-15T06:43:14;2.70;;;2.40;;
12768;SDS011;6448;48.916;8.990;2022-11-15T06:44:36;3.13;;;2.33;;
12768;SDS011;6448;48.916;8.990;2022-11-15T06:45:57;2.57;;;2.37;;
12768;SDS011;6448;48.916;8.990;2022-11-15T06:47:17;2.40;;;2.20;;
12768;SDS011;6448;48.916;8.990;2022-11-15T06:48:38;2.55;;;2.35;;
12768;SDS011;6448;48.916;8.990;2022-11-15T06:49:58;2.72;;;2.35;;
12768;SDS011;6448;48.916;8.990;2022-11-15T06:51:19;2.78;;;2.50;;
12768;SDS011;6448;48.916;8.990;2022-11-15T06:52:39;2.80;;;2.50;;
12768;SDS011;6448;48.916;8.990;2022-11-15T06:53:59;2.65;;;2.42;;
12768;SDS011;6448;48.916;8.990;2022-11-15T06:55:20;2.60;;;2.40;;
12768;SDS011;6448;48.916;8.990;2022-11-15T06:56:39;2.50;;;2.30;;
12768;SDS011;6448;48.916;8.990;2022-11-15T06:58:00;2.78;;;2.50;;
12768;SDS011;6448;48.916;8.990;2022-11-15T06:59:19;2.60;;;2.35;;
12768;SDS011;6448;48.916;8.990;2022-11-15T07:00:41;2.60;;;2.40;;
12768;SDS011;6448;48.916;8.990;2022-11-15T07:02:01;2.40;;;2.20;;
12768;SDS011;6448;48.916;8.990;2022-11-15T07:03:21;2.42;;;2.22;;
12768;SDS011;6448;48.916;8.990;2022-11-15T07:04:42;2.35;;;2.15;;
12768;SDS011;6448;48.916;8.990;2022-11-15T07:06:01;2.50;;;2.15;;
12768;SDS011;6448;48.916;8.990;2022-11-15T07:07:22;2.30;;;2.10;;
12768;SDS011;6448;48.916;8.990;2022-11-15T07:08:42;2.40;;;2.20;;
12768;SDS011;6448;48.916;8.990;2022-11-15T07:10:05;2.00;;;1.90;;
12768;SDS011;6448;48.916;8.990;2022-11-15T07:11:26;2.05;;;1.90;;
12768;SDS011;6448;48.916;8.990;2022-11-15T07:12:47;1.90;;;1.80;;
12768;SDS011;6448;48.916;8.990;2022-11-15T07:14:08;1.95;;;1.85;;
12768;SDS011;6448;48.916;8.990;2022-11-15T07:15:28;1.90;;;1.80;;
12768;SDS011;6448;48.916;8.990;2022-11-15T07:16:49;1.90;;;1.70;;
12768;SDS011;6448;48.916;8.990;2022-11-15T07:18:10;2.60;;;2.10;;
12768;SDS011;6448;48.916;8.990;2022-11-15T07:19:30;2.20;;;2.00;;
12768;SDS011;6448;48.916;8.990;2022-11-15T07:20:51;1.92;;;1.80;;
12768;SDS011;6448;48.916;8.990;2022-11-15T07:22:11;2.50;;;2.00;;
12768;SDS011;6448;48.916;8.990;2022-11-15T07:23:32;2.25;;;2.05;;
12768;SDS011;6448;48.916;8.990;2022-11-15T07:24:53;2.20;;;2.00;;
12768;SDS011;6448;48.916;8.990;2022-11-15T07:26:13;2.10;;;1.90;;
12768;SDS011;6448;48.916;8.990;2022-11-15T07:27:34;2.10;;;1.90;;
12768;SDS011;6448;48.916;8.990;2022-11-15T07:28:55;2.00;;;1.80;;
12768;SDS011;6448;48.916;8.990;2022-11-15T07:30:15;2.05;;;1.90;;
12768;SDS011;6448;48.916;8.990;2022-11-15T07:31:34;2.13;;;1.92;;
12768;SDS011;6448;48.916;8.990;2022-11-15T07:32:57;2.45;;;2.22;;
12768;SDS011;6448;48.916;8.990;2022-11-15T07:34:18;2.00;;;1.90;;
12768;SDS011;6448;48.916;8.990;2022-11-15T07:35:38;2.25;;;2.05;;
12768;SDS011;6448;48.916;8.990;2022-11-15T07:36:58;2.25;;;2.05;;
12768;SDS011;6448;48.916;8.990;2022-11-15T07:38:18;2.57;;;2.20;;
12768;SDS011;6448;48.916;8.990;2022-11-15T07:39:39;2.20;;;2.00;;
12768;SDS011;6448;48.916;8.990;2022-11-15T07:41:00;2.20;;;1.90;;
12768;SDS011;6448;48.916;8.990;2022-11-15T07:42:22;2.20;;;2.00;;
12768;SDS011;6448;48.916;8.990;2022-11-15T07:44:00;2.30;;;2.10;;
12768;SDS011;6448;48.916;8.990;2022-11-15T07:45:21;2.10;;;1.90;;
12768;SDS011;6448;48.916;8.990;2022-11-15T07:46:44;2.40;;;2.20;;
12768;SDS011;6448;48.916;8.990;2022-11-15T07:48:06;2.63;;;2.40;;
12768;SDS011;6448;48.916;8.990;2022-11-15T07:49:26;2.78;;;2.40;;
12768;SDS011;6448;48.916;8.990;2022-11-15T07:50:47;2.78;;;2.58;;
12768;SDS011;6448;48.916;8.990;2022-11-15T07:52:07;3.30;;;3.00;;
12768;SDS011;6448;48.916;8.990;2022-11-15T07:53:28;3.35;;;3.05;;
12768;SDS011;6448;48.916;8.990;2022-11-15T07:54:48;3.30;;;3.00;;
12768;SDS011;6448;48.916;8.990;2022-11-15T07:56:08;3.70;;;3.27;;
12768;SDS011;6448;48.916;8.990;2022-11-15T07:57:29;3.17;;;2.88;;
12768;SDS011;6448;48.916;8.990;2022-11-15T07:58:50;3.40;;;3.10;;
12768;SDS011;6448;48.916;8.990;2022-11-15T08:00:11;3.20;;;2.90;;
12768;SDS011;6448;48.916;8.990;2022-11-15T08:01:32;3.27;;;2.97;;
12768;SDS011;6448;48.916;8.990;2022-11-15T08:02:52;4.00;;;3.10;;
12768;SDS011;6448;48.916;8.990;2022-11-15T08:04:14;3.15;;;2.70;;
12768;SDS011;6448;48.916;8.990;2022-11-15T08:05:35;2.80;;;2.60;;
12768;SDS011;6448;48.916;8.990;2022-11-15T08:06:56;2.80;;;2.60;;
12768;SDS011;6448;48.916;8.990;2022-11-15T08:08:17;3.03;;;2.80;;
12768;SDS011;6448;48.916;8.990;2022-11-15T08:09:37;2.88;;;2.67;;
12768;SDS011;6448;48.916;8.990;2022-11-15T08:10:58;2.97;;;2.60;;
12768;SDS011;6448;48.916;8.990;2022-11-15T08:12:19;3.45;;;2.80;;
12768;SDS011;6448;48.916;8.990;2022-11-15T08:13:39;2.88;;;2.65;;
12768;SDS011;6448;48.916;8.990;2022-11-15T08:14:59;2.55;;;2.35;;
12768;SDS011;6448;48.916;8.990;2022-11-15T08:16:20;2.50;;;2.30;;
12768;SDS011;6448;48.916;8.990;2022-11-15T08:17:40;2.30;;;2.10;;
12768;SDS011;6448;48.916;8.990;2022-11-15T08:19:01;2.83;;;2.38;;
12768;SDS011;6448;48.916;8.990;2022-11-15T08:20:23;2.35;;;2.15;;
12768;SDS011;6448;48.916;8.990;2022-11-15T08:21:43;2.40;;;2.20;;
12768;SDS011;6448;48.916;8.990;2022-11-15T08:23:04;2.30;;;2.10;;
12768;SDS011;6448;48.916;8.990;2022-11-15T08:24:25;2.00;;;1.80;;